»·PEaware :: N802TZ KVNY-KCRQ

N802TZ :: KVNY-KCRQ

FLIGHT INFORMATION

Flight Status: Arrived
Operator: Privately registered:
United States
More flights under this callsign
Pilot: Vinicius U. (17612)
Aircraft: PIPER PA-46-310/350P MALIBU MIRAGE
(PA46)
More flights by this aircraft type
Origin: KVNY Van Nuys
United States
Destination: KCRQ McClellan-Palomar
United States
More flights between these airports :: More routes between these airports
Route: ADAMM2 ADAMM V186 ROBNN V458 OCN
File this flight plan on PilotEdge
Remarks:
Altitude:
(Current/Filed)
9,000ft
Speed:
(Current/Filed)
180kts
Departed: 09-Jan-18 10:06 AM
Arrived: 09-Jan-18 11:00 AM
Distance/Time
Traveled:
89nm/0:54
Distance/Time
To Go:
Arrived

Flight Plot

Page will automatically refresh every two minutes.

Flight plan parsing failed; only flown route is shown


Map Options




Map Legend


Flown Route
Filed Route
Departure Airport
Arrival Airport
Navaid (VOR, NDB)
Fix

Horizontal Profiles

Position Reports

Time Latitude Longitude Heading Altitude Ground
Speed
09-Jan-18 09:49 34.216876 -118.492914 10 806ft 0kts
09-Jan-18 09:50 34.216876 -118.492914 10 806ft 0kts
09-Jan-18 09:51 34.216876 -118.492914 10 806ft 0kts
09-Jan-18 09:52 34.216876 -118.492914 10 806ft 0kts
09-Jan-18 09:53 34.216876 -118.492914 10 806ft 0kts
09-Jan-18 09:54 34.216876 -118.492914 10 806ft 0kts
09-Jan-18 09:55 34.216876 -118.492914 10 806ft 0kts
09-Jan-18 09:56 34.216876 -118.492914 10 806ft 0kts
09-Jan-18 09:57 34.216876 -118.492914 10 806ft 0kts
09-Jan-18 09:58 34.216876 -118.492914 10 806ft 0kts
09-Jan-18 09:59 34.216876 -118.492914 10 806ft 0kts
09-Jan-18 10:00 34.216876 -118.492914 10 806ft 0kts
09-Jan-18 10:01 34.216876 -118.492914 10 806ft 0kts
09-Jan-18 10:02 34.216876 -118.492914 10 806ft 0kts
09-Jan-18 10:03 34.216876 -118.492914 10 806ft 0kts
09-Jan-18 10:04 34.216876 -118.492914 10 806ft 0kts
09-Jan-18 10:05 34.216877 -118.492913 10 806ft 0kts
09-Jan-18 10:06 34.216879 -118.492913 10 806ft 0kts
09-Jan-18 10:07 34.216935 -118.492099 356 806ft 12kts
09-Jan-18 10:08 34.218023 -118.491814 86 806ft 0kts
09-Jan-18 10:09 34.218023 -118.491811 86 806ft 0kts
09-Jan-18 10:10 34.218023 -118.491809 86 806ft 0kts
09-Jan-18 10:11 34.216634 -118.491014 175 806ft 16kts
09-Jan-18 10:12 34.199694 -118.489366 174 941ft 99kts
09-Jan-18 10:13 34.176294 -118.476857 125 1843ft 109kts
09-Jan-18 10:14 34.157691 -118.444040 127 2517ft 125kts
09-Jan-18 10:15 34.137316 -118.409902 127 3343ft 119kts
09-Jan-18 10:16 34.129507 -118.371084 93 4109ft 129kts
09-Jan-18 10:17 34.131230 -118.326779 92 4816ft 133kts
09-Jan-18 10:18 34.133706 -118.281876 92 5508ft 135kts
09-Jan-18 10:19 34.137837 -118.235687 93 6215ft 140kts
09-Jan-18 10:20 34.137336 -118.189042 114 6789ft 142kts
09-Jan-18 10:21 34.121509 -118.140690 121 6792ft 162kts
09-Jan-18 10:22 34.104211 -118.090990 121 6785ft 159kts
09-Jan-18 10:23 34.089851 -118.040330 117 6784ft 159kts
09-Jan-18 10:24 34.076621 -117.989060 118 6891ft 155kts
09-Jan-18 10:25 34.063400 -117.938724 118 6919ft 161kts
09-Jan-18 10:26 34.049695 -117.887354 117 6925ft 160kts
09-Jan-18 10:27 34.035245 -117.835966 118 6924ft 162kts
09-Jan-18 10:28 34.021282 -117.784170 118 6923ft 162kts
09-Jan-18 10:29 34.005717 -117.733585 124 6925ft 159kts
09-Jan-18 10:30 33.987883 -117.684859 127 6923ft 156kts
09-Jan-18 10:31 33.965828 -117.640609 132 6923ft 155kts
09-Jan-18 10:32 33.943338 -117.595841 133 6923ft 156kts
09-Jan-18 10:33 33.924666 -117.546328 123 6924ft 165kts
09-Jan-18 10:34 33.903890 -117.498428 155 6939ft 149kts
09-Jan-18 10:35 33.866469 -117.476124 162 6925ft 152kts
09-Jan-18 10:36 33.828320 -117.452101 152 6925ft 159kts
09-Jan-18 10:37 33.792421 -117.421155 151 6925ft 160kts
09-Jan-18 10:38 33.755120 -117.390000 151 6941ft 165kts
09-Jan-18 10:39 33.717783 -117.358279 151 6971ft 164kts
09-Jan-18 10:40 33.680759 -117.325891 151 6970ft 164kts
09-Jan-18 10:41 33.643812 -117.293506 152 6969ft 165kts
09-Jan-18 10:42 33.606844 -117.260843 151 6966ft 165kts
09-Jan-18 10:43 33.576226 -117.232826 151 6964ft 165kts
09-Jan-18 10:44 33.534019 -117.193895 151 6978ft 164kts
09-Jan-18 10:45 33.497814 -117.159805 151 6987ft 165kts
09-Jan-18 10:46 33.465335 -117.140189 178 6992ft 153kts
09-Jan-18 10:47 33.423072 -117.134925 180 6987ft 152kts
09-Jan-18 10:48 33.380755 -117.130609 178 7006ft 151kts
09-Jan-18 10:49 33.339514 -117.120691 173 7010ft 152kts
09-Jan-18 10:50 33.298648 -117.113557 177 6980ft 148kts
09-Jan-18 10:51 33.257554 -117.107489 179 6978ft 152kts
09-Jan-18 10:52 33.216452 -117.097942 144 6987ft 159kts
09-Jan-18 10:53 33.210574 -117.040805 92 6438ft 183kts
09-Jan-18 10:54 33.212787 -116.978171 92 5526ft 193kts
09-Jan-18 10:55 33.212836 -116.917169 118 4978ft 166kts
09-Jan-18 10:56 33.186667 -116.931611 251 4994ft 149kts
09-Jan-18 10:57 33.175363 -116.979633 254 4994ft 152kts
09-Jan-18 10:58 33.170875 -117.027599 252 4836ft 136kts
09-Jan-18 10:59 33.161819 -117.073361 251 3944ft 144kts
09-Jan-18 11:00 33.153802 -117.116514 258 3166ft 122kts
09-Jan-18 11:01 33.148346 -117.157292 260 2379ft 116kts
09-Jan-18 11:02 33.142418 -117.190792 259 1778ft 108kts
09-Jan-18 11:03 33.137176 -117.225317 259 1187ft 108kts
09-Jan-18 11:04 33.131624 -117.256845 258 693ft 92kts
09-Jan-18 11:05 33.127508 -117.284524 260 335ft 43kts
09-Jan-18 11:06 33.126357 -117.287463 165 335ft 0kts
09-Jan-18 11:07 33.126356 -117.287463 165 335ft 0kts
09-Jan-18 11:08 33.126122 -117.286941 79 335ft 9kts
09-Jan-18 11:09 33.127060 -117.281062 78 335ft 22kts
09-Jan-18 11:10 33.127940 -117.275542 78 335ft 5kts
09-Jan-18 11:11 33.126470 -117.274706 79 335ft 0kts
09-Jan-18 11:12 33.126481 -117.274623 80 335ft 0kts
09-Jan-18 11:13 33.126481 -117.274623 80 335ft 0kts
09-Jan-18 11:14 33.126481 -117.274623 80 335ft 0kts
09-Jan-18 11:15 33.126481 -117.274623 80 335ft 0kts
09-Jan-18 11:16 33.126481 -117.274623 80 335ft 0kts
09-Jan-18 11:17 33.126481 -117.274623 80 335ft 0kts
09-Jan-18 11:18 33.126481 -117.274623 80 335ft 0kts
09-Jan-18 11:19 33.126481 -117.274623 80 335ft 0kts
09-Jan-18 11:20 33.126481 -117.274623 80 335ft 0kts
09-Jan-18 11:21 33.126481 -117.274623 80 335ft 0kts

Navigation Log

Ident Type
Flight plan parsing failed, navigation log unavailable